Terminal Aerodrome Forecast
Issued by NWS Tampa Bay Area, FL

Home | Current Version | Previous Version | Text Only | Print | Product List | Glossary On
Versions: 1 2 3 4 5 6 7 8 9 10 11 12 13 14
368
FTUS42 KTBW 262320
TAFFMY
TAF
KFMY 262320Z 2700/2724 08010KT P6SM SCT060 BKN090
     FM270600 05005KT P6SM FEW250
     FM271400 09010KT P6SM SCT040
     FM272000 07009KT P6SM VCTS SCT020CB BKN040=

USA.gov is the U.S. government's official web portal to all federal, state and local government web resources and services.